createdAt,value
2019-01-06T00:02:13.849Z,2.92
2019-01-06T00:04:59.125Z,3.33
2019-01-06T00:07:42.004Z,3.40
2019-01-06T00:10:46.081Z,3.50
2019-01-06T00:13:33.252Z,4.08
2019-01-06T00:16:24.688Z,4.05
2019-01-06T00:19:15.422Z,3.65
2019-01-06T00:22:03.102Z,3.62
2019-01-06T00:25:03.840Z,3.50
2019-01-06T00:27:49.428Z,3.45
2019-01-06T00:30:36.792Z,3.55
2019-01-06T00:33:24.018Z,3.35
2019-01-06T00:36:08.718Z,3.70
2019-01-06T00:38:57.181Z,3.27
2019-01-06T00:41:44.797Z,3.22
2019-01-06T00:44:48.914Z,2.95
2019-01-06T00:47:37.572Z,3.25
2019-01-06T00:50:25.189Z,3.33
2019-01-06T00:53:17.457Z,3.42
2019-01-06T00:56:05.159Z,2.17
2019-01-06T00:58:59.850Z,3.17
2019-01-06T01:01:47.224Z,2.70
2019-01-06T01:04:34.599Z,3.08
2019-01-06T01:07:32.466Z,2.80
2019-01-06T01:10:27.001Z,2.77
2019-01-06T01:13:18.372Z,2.90
2019-01-06T01:16:06.922Z,2.45
2019-01-06T01:18:51.070Z,2.67
2019-01-06T01:21:48.672Z,2.45
2019-01-06T01:24:37.082Z,2.95
2019-01-06T01:27:28.391Z,2.55
2019-01-06T01:30:20.015Z,2.12
2019-01-06T01:33:24.038Z,2.10
2019-01-06T01:36:28.139Z,2.42
2019-01-06T01:39:11.872Z,2.20
2019-01-06T01:42:03.259Z,2.30
2019-01-06T01:44:57.656Z,1.90
2019-01-06T01:47:44.933Z,2.45
2019-01-06T01:50:33.599Z,2.05
2019-01-06T01:53:20.869Z,2.10
2019-01-06T01:56:18.412Z,2.15
2019-01-06T01:59:06.058Z,1.50
2019-01-06T02:01:53.483Z,2.40
2019-01-06T02:04:51.892Z,2.37
2019-01-06T02:07:50.568Z,2.70
2019-01-06T02:10:30.191Z,1.70
2019-01-06T02:13:25.194Z,2.05
2019-01-06T02:16:13.850Z,2.10
2019-01-06T02:19:11.571Z,2.27
2019-01-06T02:22:18.666Z,1.98
2019-01-06T02:25:12.909Z,1.80
2019-01-06T02:28:00.408Z,1.85
2019-01-06T02:30:58.267Z,2.20
2019-01-06T02:33:49.995Z,1.85
2019-01-06T02:36:37.372Z,1.87
2019-01-06T02:39:25.660Z,1.85
2019-01-06T02:42:12.983Z,2.10
2019-01-06T02:45:20.088Z,1.70
2019-01-06T02:48:07.279Z,2.20
2019-01-06T02:51:07.817Z,1.80
2019-01-06T02:54:08.087Z,2.10
2019-01-06T02:56:55.867Z,1.82
2019-01-06T02:59:42.573Z,1.77
2019-01-06T03:02:34.098Z,2.37
2019-01-06T03:05:21.533Z,1.70
2019-01-06T03:08:08.940Z,2.30
2019-01-06T03:11:04.044Z,2.08
2019-01-06T03:13:51.876Z,1.67
2019-01-06T03:16:54.557Z,1.90
2019-01-06T03:19:52.536Z,1.85
2019-01-06T03:22:40.158Z,1.65
2019-01-06T03:25:27.589Z,1.67
2019-01-06T03:28:34.662Z,1.60
2019-01-06T03:31:26.028Z,1.60
2019-01-06T03:34:17.600Z,1.65
2019-01-06T03:37:15.059Z,1.67
2019-01-06T03:40:02.377Z,1.90
2019-01-06T03:42:51.176Z,1.50
2019-01-06T03:45:49.232Z,1.87
2019-01-06T03:48:36.467Z,1.87
2019-01-06T03:51:28.051Z,2.15
2019-01-06T03:54:22.741Z,1.72
2019-01-06T03:57:17.740Z,1.85
2019-01-06T04:00:03.466Z,1.52
2019-01-06T04:02:49.968Z,2.45
2019-01-06T04:05:37.450Z,2.10
2019-01-06T04:08:26.213Z,1.85
2019-01-06T04:11:27.156Z,2.15
2019-01-06T04:14:14.684Z,3.15
2019-01-06T04:17:12.645Z,2.25
2019-01-06T04:19:56.890Z,1.95
2019-01-06T04:22:54.527Z,2.40
2019-01-06T04:25:52.115Z,2.62
2019-01-06T04:28:46.503Z,2.52
2019-01-06T04:31:41.301Z,2.42
2019-01-06T04:34:46.068Z,2.62
2019-01-06T04:37:40.413Z,2.22
2019-01-06T04:40:27.637Z,2.65
2019-01-06T04:43:12.223Z,2.75
2019-01-06T04:46:09.749Z,2.45
2019-01-06T04:48:57.119Z,2.50
2019-01-06T04:51:48.895Z,2.45
2019-01-06T04:54:36.394Z,2.60
2019-01-06T04:57:31.358Z,2.33
2019-01-06T05:00:25.603Z,2.60
2019-01-06T05:03:20.323Z,2.42
2019-01-06T05:06:07.479Z,2.10
2019-01-06T05:09:14.497Z,2.72
2019-01-06T05:12:01.613Z,3.00
2019-01-06T05:14:58.765Z,2.90
2019-01-06T05:17:59.499Z,2.60
2019-01-06T05:20:46.725Z,2.98
2019-01-06T05:23:34.145Z,2.58
2019-01-06T05:26:21.711Z,2.83
2019-01-06T05:29:09.193Z,3.17
2019-01-06T05:31:56.552Z,3.67
2019-01-06T05:34:50.595Z,3.60
2019-01-06T05:37:37.711Z,4.08
2019-01-06T05:40:29.077Z,3.67
2019-01-06T05:43:29.873Z,4.47
2019-01-06T05:46:33.755Z,4.58
2019-01-06T05:49:21.197Z,4.10
2019-01-06T05:52:08.687Z,3.90
2019-01-06T05:55:12.426Z,4.00
2019-01-06T05:58:09.986Z,4.22
2019-01-06T06:01:16.969Z,3.40
2019-01-06T06:04:20.673Z,2.90
2019-01-06T06:07:12.295Z,3.72
2019-01-06T06:09:52.767Z,3.00
2019-01-06T06:12:39.872Z,2.98
2019-01-06T06:15:27.397Z,2.90
2019-01-06T06:18:16.153Z,3.33
2019-01-06T06:21:00.339Z,2.83
2019-01-06T06:24:02.878Z,2.98
2019-01-06T06:26:56.192Z,3.50
2019-01-06T06:30:21.044Z,3.65
2019-01-06T06:33:08.667Z,3.40
2019-01-06T06:35:57.222Z,3.65
2019-01-06T06:38:44.071Z,3.95
2019-01-06T06:41:31.294Z,3.70
2019-01-06T06:44:27.628Z,3.37
2019-01-06T06:47:14.696Z,3.30
2019-01-06T06:50:03.143Z,3.33
2019-01-06T06:52:51.896Z,3.52
2019-01-06T06:55:40.349Z,3.75
2019-01-06T06:58:38.546Z,2.95
2019-01-06T07:01:54.748Z,2.95
2019-01-06T07:04:54.015Z,3.37
2019-01-06T07:07:54.987Z,2.65
2019-01-06T07:10:43.509Z,3.10
2019-01-06T07:13:28.893Z,3.10
2019-01-06T07:16:53.554Z,3.15
2019-01-06T07:19:51.445Z,2.55
2019-01-06T07:22:43.107Z,3.22
2019-01-06T07:25:37.832Z,3.30
2019-01-06T07:31:28.384Z,2.83
2019-01-06T07:34:16.108Z,3.10
2019-01-06T07:37:10.803Z,3.80
2019-01-06T07:40:05.371Z,2.80
2019-01-06T07:45:52.841Z,3.12
2019-01-06T07:48:53.574Z,3.27
2019-01-06T07:51:40.092Z,3.50
2019-01-06T07:54:27.906Z,4.10
2019-01-06T07:57:28.888Z,3.05
2019-01-06T08:00:27.022Z,4.00
2019-01-06T08:03:14.362Z,3.77
2019-01-06T08:06:18.664Z,3.72
2019-01-06T08:09:10.111Z,4.03
2019-01-06T08:12:05.427Z,3.80
2019-01-06T08:14:53.362Z,4.22
2019-01-06T08:17:45.104Z,5.03
2019-01-06T08:20:33.873Z,4.00
2019-01-06T08:23:21.615Z,4.65
2019-01-06T08:26:09.978Z,4.78
2019-01-06T08:28:58.948Z,3.98
2019-01-06T08:31:47.750Z,5.47
2019-01-06T08:34:43.000Z,4.83
2019-01-06T08:37:50.189Z,6.85
2019-01-06T08:40:37.716Z,5.10
2019-01-06T08:43:25.236Z,5.30
2019-01-06T08:46:12.662Z,6.37
2019-01-06T08:49:16.994Z,4.33
2019-01-06T08:52:24.166Z,5.05
2019-01-06T08:55:11.155Z,5.33
2019-01-06T08:57:58.603Z,5.05
2019-01-06T09:00:46.133Z,5.20
2019-01-06T09:03:43.762Z,5.10
2019-01-06T09:06:31.091Z,5.53
2019-01-06T09:09:18.648Z,5.20
2019-01-06T09:12:01.357Z,5.10
2019-01-06T09:14:49.090Z,5.15
2019-01-06T09:17:37.585Z,4.55
2019-01-06T09:20:32.602Z,4.20
2019-01-06T09:23:20.058Z,5.15
2019-01-06T09:26:07.347Z,4.30
2019-01-06T09:28:54.980Z,5.62
2019-01-06T09:31:42.339Z,5.20
2019-01-06T09:34:30.983Z,5.53
2019-01-06T09:37:31.714Z,4.62
2019-01-06T09:40:27.151Z,4.60
2019-01-06T09:43:28.270Z,3.62
2019-01-06T09:46:23.004Z,4.22
2019-01-06T09:49:29.334Z,4.35
2019-01-06T09:52:16.935Z,4.60
2019-01-06T09:55:04.280Z,4.37
2019-01-06T09:57:53.329Z,5.33
2019-01-06T10:00:48.143Z,4.53
2019-01-06T10:03:35.371Z,4.53
2019-01-06T10:06:23.395Z,3.67
2019-01-06T10:09:11.331Z,4.03
2019-01-06T10:12:01.762Z,3.70
2019-01-06T10:15:05.942Z,4.00
2019-01-06T10:18:12.768Z,3.47
2019-01-06T10:21:01.519Z,3.60
2019-01-06T10:23:50.533Z,3.98
2019-01-06T10:26:38.407Z,4.42
2019-01-06T10:29:27.445Z,3.55
2019-01-06T10:32:31.479Z,3.98
2019-01-06T10:35:20.132Z,3.30
2019-01-06T10:38:17.844Z,3.55
2019-01-06T10:41:06.329Z,3.40
2019-01-06T10:44:03.276Z,3.65
2019-01-06T10:46:55.539Z,3.30
2019-01-06T10:49:50.609Z,3.30
2019-01-06T10:52:39.098Z,5.05
2019-01-06T10:55:26.466Z,2.77
2019-01-06T10:58:14.000Z,2.70
2019-01-06T11:01:01.661Z,2.50
2019-01-06T11:03:53.809Z,3.10
2019-01-06T11:09:36.077Z,3.10
2019-01-06T11:12:40.524Z,2.80
2019-01-06T11:15:35.085Z,2.77
2019-01-06T11:18:28.677Z,2.98
2019-01-06T11:21:12.918Z,2.62
2019-01-06T11:24:01.245Z,3.00
2019-01-06T11:26:50.173Z,2.55
2019-01-06T11:29:37.737Z,3.90
2019-01-06T11:32:32.422Z,2.58
2019-01-06T11:35:19.850Z,2.20
2019-01-06T11:38:07.644Z,3.05
2019-01-06T11:41:08.070Z,2.90
2019-01-06T11:43:57.793Z,2.80
2019-01-06T11:47:01.488Z,3.33
2019-01-06T11:49:48.945Z,2.42
2019-01-06T11:52:36.496Z,5.80
2019-01-06T11:55:24.070Z,3.10
2019-01-06T11:58:22.261Z,2.90
2019-01-06T12:01:09.805Z,3.05
2019-01-06T12:03:57.396Z,3.42
2019-01-06T12:06:44.821Z,2.85
2019-01-06T12:09:32.564Z,2.77
2019-01-06T12:12:33.492Z,2.60
2019-01-06T12:15:26.047Z,3.20
2019-01-06T12:18:13.992Z,3.10
2019-01-06T12:21:01.500Z,3.90
2019-01-06T12:23:59.580Z,3.50
2019-01-06T12:26:41.973Z,4.30
2019-01-06T12:29:22.023Z,3.92
2019-01-06T12:32:10.778Z,4.50
2019-01-06T12:34:58.821Z,3.45
2019-01-06T12:37:48.558Z,4.17
2019-01-06T12:40:37.875Z,5.08
2019-01-06T12:43:25.815Z,3.83
2019-01-06T12:46:14.350Z,3.12
2019-01-06T12:49:01.410Z,3.37
2019-01-06T12:52:02.519Z,3.87
2019-01-06T12:54:55.876Z,4.08
2019-01-06T12:58:03.087Z,4.65
2019-01-06T13:00:57.850Z,3.67
2019-01-06T13:03:50.710Z,3.35
2019-01-06T13:06:38.943Z,3.47
2019-01-06T13:09:39.431Z,3.25
2019-01-06T13:12:27.547Z,2.77
2019-01-06T13:15:15.791Z,3.35
2019-01-06T13:18:13.515Z,5.37
2019-01-06T13:20:55.739Z,2.50
2019-01-06T13:23:48.162Z,3.00
2019-01-06T13:26:35.547Z,3.33
2019-01-06T13:29:19.161Z,3.83
2019-01-06T13:32:16.747Z,3.00
2019-01-06T13:35:05.649Z,2.80
2019-01-06T13:37:53.284Z,2.67
2019-01-06T13:41:02.868Z,2.90
2019-01-06T13:43:46.238Z,2.70
2019-01-06T13:46:31.733Z,2.70
2019-01-06T13:49:38.883Z,2.75
2019-01-06T13:52:27.673Z,3.10
2019-01-06T13:55:15.121Z,3.40
2019-01-06T13:58:10.883Z,2.85
2019-01-06T14:00:59.658Z,3.47
2019-01-06T14:03:47.286Z,3.83
2019-01-06T14:06:35.331Z,3.60
2019-01-06T14:09:43.847Z,4.03
2019-01-06T14:12:23.706Z,3.77
2019-01-06T14:15:11.465Z,4.35
2019-01-06T14:18:00.304Z,3.80
2019-01-06T14:20:47.715Z,4.78
2019-01-06T14:23:36.162Z,5.28
2019-01-06T14:26:28.504Z,4.35
2019-01-06T14:29:15.705Z,5.50
2019-01-06T14:32:13.511Z,3.47
2019-01-06T14:35:01.095Z,3.50
2019-01-06T14:37:54.300Z,3.62
2019-01-06T14:40:41.880Z,3.55
2019-01-06T14:43:48.906Z,3.55
2019-01-06T14:46:52.463Z,3.10
2019-01-06T14:49:57.315Z,3.30
2019-01-06T14:52:45.026Z,3.40
2019-01-06T14:55:32.317Z,2.80
2019-01-06T14:58:13.730Z,3.33
2019-01-06T15:01:02.347Z,2.85
2019-01-06T15:03:49.805Z,2.37
2019-01-06T15:06:37.739Z,2.50
2019-01-06T15:09:28.101Z,2.10
2019-01-06T15:12:23.635Z,2.83
2019-01-06T15:15:27.861Z,2.60
2019-01-06T15:18:15.593Z,2.30
2019-01-06T15:21:03.221Z,2.65
2019-01-06T15:23:50.762Z,2.40
2019-01-06T15:26:39.602Z,2.27
2019-01-06T15:29:37.504Z,2.00
2019-01-06T15:32:18.060Z,1.95
2019-01-06T15:35:05.279Z,2.35
2019-01-06T15:38:02.915Z,2.15
2019-01-06T15:40:50.219Z,2.30
2019-01-06T15:43:54.541Z,2.00
2019-01-06T15:46:42.599Z,2.40
2019-01-06T15:49:37.498Z,1.85
2019-01-06T15:52:25.019Z,2.12
2019-01-06T15:55:05.948Z,5.10
2019-01-06T15:58:09.777Z,2.30
2019-01-06T16:01:07.360Z,2.25
2019-01-06T16:04:11.167Z,2.37
2019-01-06T16:06:57.832Z,2.27
2019-01-06T16:09:45.502Z,1.72
2019-01-06T16:12:41.396Z,2.37
2019-01-06T16:15:30.487Z,2.58
2019-01-06T16:18:19.858Z,2.30
2019-01-06T16:21:07.380Z,1.98
2019-01-06T16:23:55.826Z,2.30
2019-01-06T16:26:43.456Z,2.75
2019-01-06T16:29:32.230Z,2.47
2019-01-06T16:32:21.490Z,2.45
2019-01-06T16:35:13.158Z,2.52
2019-01-06T16:38:01.340Z,3.02
2019-01-06T16:40:49.073Z,2.80
2019-01-06T16:43:36.714Z,3.60
2019-01-06T16:46:25.554Z,3.12
2019-01-06T16:49:17.511Z,2.67
2019-01-06T16:52:08.995Z,3.10
2019-01-06T16:55:06.723Z,2.83
2019-01-06T16:57:47.860Z,2.92
2019-01-06T17:00:36.357Z,3.20
2019-01-06T17:03:43.477Z,3.58
2019-01-06T17:06:30.696Z,3.17
2019-01-06T17:09:46.208Z,4.37
2019-01-06T17:12:41.040Z,4.40
2019-01-06T17:15:42.015Z,4.10
2019-01-06T17:18:39.533Z,4.58
2019-01-06T17:21:46.512Z,4.08
2019-01-06T17:24:33.986Z,3.95
2019-01-06T17:27:21.716Z,4.03
2019-01-06T17:30:13.386Z,3.58
2019-01-06T17:33:08.543Z,3.70
2019-01-06T17:35:56.166Z,3.50
2019-01-06T17:38:47.668Z,3.00
2019-01-06T17:41:42.540Z,4.17
2019-01-06T17:44:31.341Z,3.52
2019-01-06T17:47:34.789Z,3.50
2019-01-06T17:50:24.014Z,3.17
2019-01-06T17:53:18.703Z,3.50
2019-01-06T17:56:03.156Z,3.90
2019-01-06T17:58:50.273Z,2.77
2019-01-06T18:01:37.799Z,3.52
2019-01-06T18:04:25.068Z,4.05
2019-01-06T18:07:05.502Z,3.42
2019-01-06T18:09:57.612Z,3.90
2019-01-06T18:12:46.306Z,2.70
2019-01-06T18:15:33.998Z,3.83
2019-01-06T18:21:34.847Z,3.10
2019-01-06T18:24:22.015Z,3.22
2019-01-06T18:27:11.744Z,3.47
2019-01-06T18:30:00.531Z,5.80
2019-01-06T18:32:52.120Z,3.47
2019-01-06T18:35:58.907Z,3.20
2019-01-06T18:38:51.746Z,3.20
2019-01-06T18:41:43.572Z,3.75
2019-01-06T18:44:47.387Z,4.15
2019-01-06T18:47:54.772Z,3.50
2019-01-06T18:50:42.191Z,4.80
2019-01-06T18:53:29.744Z,4.33
2019-01-06T18:56:11.264Z,4.58
2019-01-06T18:58:58.425Z,4.22
2019-01-06T19:01:39.496Z,4.50
2019-01-06T19:04:27.123Z,4.00
2019-01-06T19:07:14.548Z,3.95
2019-01-06T19:10:07.093Z,5.10
2019-01-06T19:13:02.706Z,5.25
2019-01-06T19:15:49.080Z,4.85
2019-01-06T19:18:43.593Z,5.47
2019-01-06T19:21:31.433Z,5.60
2019-01-06T19:24:29.332Z,5.72
2019-01-06T19:27:29.863Z,6.20
2019-01-06T19:30:24.625Z,5.92
2019-01-06T19:33:16.426Z,5.67
2019-01-06T19:36:04.130Z,5.30
2019-01-06T19:38:57.777Z,5.42
2019-01-06T19:41:49.291Z,4.90
2019-01-06T19:44:41.142Z,5.90
2019-01-06T19:47:23.401Z,5.58
2019-01-06T19:50:10.966Z,5.62
2019-01-06T19:52:58.346Z,6.15
2019-01-06T19:56:11.371Z,6.20
2019-01-06T19:58:59.009Z,6.72
2019-01-06T20:01:53.622Z,6.65
2019-01-06T20:04:41.112Z,6.85
2019-01-06T20:07:39.393Z,7.15
2019-01-06T20:10:25.439Z,6.37
2019-01-06T20:13:12.803Z,7.10
2019-01-06T20:16:00.331Z,6.83
2019-01-06T20:18:48.983Z,7.70
2019-01-06T20:21:36.048Z,8.13
2019-01-06T20:24:23.330Z,7.03
2019-01-06T20:27:24.262Z,9.15
2019-01-06T20:30:21.765Z,6.85
2019-01-06T20:33:09.222Z,8.30
2019-01-06T20:35:57.096Z,9.30
2019-01-06T20:38:48.580Z,7.80
2019-01-06T20:41:33.662Z,7.78
2019-01-06T20:44:18.165Z,9.20
2019-01-06T20:47:05.854Z,9.25
2019-01-06T20:49:55.932Z,8.53
2019-01-06T20:52:56.677Z,10.28
2019-01-06T20:55:47.984Z,9.45
2019-01-06T20:58:39.959Z,8.83
2019-01-06T21:01:31.484Z,10.65
2019-01-06T21:04:20.196Z,9.48
2019-01-06T21:07:20.929Z,9.65
2019-01-06T21:10:08.898Z,9.60
2019-01-06T21:12:57.615Z,9.33
2019-01-06T21:16:01.845Z,9.60
2019-01-06T21:18:49.147Z,10.38
2019-01-06T21:21:36.170Z,10.35
2019-01-06T21:24:23.789Z,9.00
2019-01-06T21:27:17.153Z,8.55
2019-01-06T21:30:21.266Z,8.65
2019-01-06T21:33:08.614Z,10.13
2019-01-06T21:35:55.911Z,9.55
2019-01-06T21:38:54.644Z,9.18
2019-01-06T21:41:43.238Z,9.55
2019-01-06T21:44:44.293Z,10.30
2019-01-06T21:47:32.138Z,10.15
2019-01-06T21:50:26.512Z,10.75
2019-01-06T21:53:13.832Z,9.85
2019-01-06T21:56:01.562Z,10.70
2019-01-06T21:58:48.991Z,11.80
2019-01-06T22:01:47.264Z,11.20
2019-01-06T22:04:48.001Z,10.98
2019-01-06T22:07:28.667Z,9.93
2019-01-06T22:10:16.087Z,10.63
2019-01-06T22:13:03.334Z,11.35
2019-01-06T22:16:10.835Z,12.60
2019-01-06T22:19:17.474Z,10.93
2019-01-06T22:22:09.001Z,11.73
2019-01-06T22:25:10.042Z,10.90
2019-01-06T22:28:13.667Z,11.53
2019-01-06T22:31:14.188Z,12.05
2019-01-06T22:34:11.831Z,12.33
2019-01-06T22:37:01.920Z,11.93
2019-01-06T22:40:02.853Z,11.73
2019-01-06T22:42:56.116Z,12.00
2019-01-06T22:45:53.780Z,11.30
2019-01-06T22:48:51.853Z,11.10
2019-01-06T22:51:49.212Z,11.15
2019-01-06T22:54:46.053Z,12.58
2019-01-06T22:57:34.705Z,12.43
2019-01-06T23:00:37.118Z,12.30
2019-01-06T23:03:31.598Z,13.53
2019-01-06T23:06:23.600Z,12.10
2019-01-06T23:09:15.018Z,13.53
2019-01-06T23:12:05.656Z,12.28
2019-01-06T23:17:59.799Z,12.15
2019-01-06T23:21:00.396Z,12.40
2019-01-06T23:23:52.068Z,12.65
2019-01-06T23:26:41.341Z,12.20
2019-01-06T23:29:28.879Z,12.73
2019-01-06T23:32:08.367Z,12.50
2019-01-06T23:34:55.925Z,12.07
2019-01-06T23:37:53.607Z,11.05
2019-01-06T23:40:40.970Z,11.57
2019-01-06T23:43:29.050Z,11.95
2019-01-06T23:46:17.911Z,12.25
2019-01-06T23:49:06.560Z,11.22
2019-01-06T23:51:53.969Z,11.22
2019-01-06T23:54:41.409Z,11.53
2019-01-06T23:57:33.398Z,12.90
